sensor_id;sensor_type;location;lat;lon;timestamp;P1;durP1;ratioP1;P2;durP2;ratioP2
68976;SDS011;56029;52.568;13.588;2022-12-18T00:02:16;34.42;;;11.60;;
68976;SDS011;56029;52.568;13.588;2022-12-18T00:04:41;37.67;;;11.32;;
68976;SDS011;56029;52.568;13.588;2022-12-18T00:07:07;34.97;;;11.43;;
68976;SDS011;56029;52.568;13.588;2022-12-18T00:09:33;33.20;;;10.20;;
68976;SDS011;56029;52.568;13.588;2022-12-18T00:11:59;37.20;;;11.68;;
68976;SDS011;56029;52.568;13.588;2022-12-18T00:14:25;33.07;;;10.83;;
68976;SDS011;56029;52.568;13.588;2022-12-18T00:16:50;31.05;;;10.23;;
68976;SDS011;56029;52.568;13.588;2022-12-18T00:19:16;33.80;;;11.50;;
68976;SDS011;56029;52.568;13.588;2022-12-18T00:21:42;35.70;;;11.10;;
68976;SDS011;56029;52.568;13.588;2022-12-18T00:24:09;31.42;;;10.43;;
68976;SDS011;56029;52.568;13.588;2022-12-18T00:26:36;31.98;;;10.30;;
68976;SDS011;56029;52.568;13.588;2022-12-18T00:29:04;36.25;;;11.18;;
68976;SDS011;56029;52.568;13.588;2022-12-18T00:31:32;35.58;;;11.88;;
68976;SDS011;56029;52.568;13.588;2022-12-18T00:33:58;33.22;;;11.00;;
68976;SDS011;56029;52.568;13.588;2022-12-18T00:36:24;38.38;;;12.88;;
68976;SDS011;56029;52.568;13.588;2022-12-18T00:38:55;36.97;;;12.10;;
68976;SDS011;56029;52.568;13.588;2022-12-18T00:41:23;39.58;;;12.88;;
68976;SDS011;56029;52.568;13.588;2022-12-18T00:44:09;40.90;;;12.52;;
68976;SDS011;56029;52.568;13.588;2022-12-18T00:46:36;40.60;;;13.00;;
68976;SDS011;56029;52.568;13.588;2022-12-18T00:49:03;44.40;;;14.07;;
68976;SDS011;56029;52.568;13.588;2022-12-18T00:51:29;45.72;;;14.48;;
68976;SDS011;56029;52.568;13.588;2022-12-18T00:53:54;46.33;;;13.90;;
68976;SDS011;56029;52.568;13.588;2022-12-18T00:56:20;47.70;;;14.52;;
68976;SDS011;56029;52.568;13.588;2022-12-18T00:58:46;48.63;;;15.30;;
68976;SDS011;56029;52.568;13.588;2022-12-18T01:01:12;47.93;;;15.50;;
68976;SDS011;56029;52.568;13.588;2022-12-18T01:03:37;49.10;;;14.82;;
68976;SDS011;56029;52.568;13.588;2022-12-18T01:06:06;49.40;;;15.20;;
68976;SDS011;56029;52.568;13.588;2022-12-18T01:08:34;49.45;;;15.43;;
68976;SDS011;56029;52.568;13.588;2022-12-18T01:10:59;54.70;;;15.50;;
68976;SDS011;56029;52.568;13.588;2022-12-18T01:13:25;53.78;;;15.50;;
68976;SDS011;56029;52.568;13.588;2022-12-18T01:15:51;64.53;;;17.07;;
68976;SDS011;56029;52.568;13.588;2022-12-18T01:18:17;56.33;;;17.27;;
68976;SDS011;56029;52.568;13.588;2022-12-18T01:20:42;54.17;;;15.77;;
68976;SDS011;56029;52.568;13.588;2022-12-18T01:23:08;58.60;;;17.08;;
68976;SDS011;56029;52.568;13.588;2022-12-18T01:25:35;49.13;;;14.43;;
68976;SDS011;56029;52.568;13.588;2022-12-18T01:28:02;49.35;;;15.63;;
68976;SDS011;56029;52.568;13.588;2022-12-18T01:30:28;50.90;;;15.70;;
68976;SDS011;56029;52.568;13.588;2022-12-18T01:32:54;55.40;;;16.08;;
68976;SDS011;56029;52.568;13.588;2022-12-18T01:35:19;44.93;;;15.00;;
68976;SDS011;56029;52.568;13.588;2022-12-18T01:37:45;44.50;;;14.68;;
68976;SDS011;56029;52.568;13.588;2022-12-18T01:40:11;47.85;;;15.88;;
68976;SDS011;56029;52.568;13.588;2022-12-18T01:42:37;53.15;;;15.55;;
68976;SDS011;56029;52.568;13.588;2022-12-18T01:45:05;47.25;;;14.73;;
68976;SDS011;56029;52.568;13.588;2022-12-18T01:47:53;48.38;;;15.50;;
68976;SDS011;56029;52.568;13.588;2022-12-18T01:50:29;43.05;;;14.00;;
68976;SDS011;56029;52.568;13.588;2022-12-18T01:52:59;47.15;;;15.27;;
68976;SDS011;56029;52.568;13.588;2022-12-18T01:55:48;46.10;;;14.40;;
68976;SDS011;56029;52.568;13.588;2022-12-18T01:58:17;45.47;;;14.45;;
68976;SDS011;56029;52.568;13.588;2022-12-18T02:00:44;42.30;;;13.85;;
68976;SDS011;56029;52.568;13.588;2022-12-18T02:03:10;37.53;;;12.82;;
68976;SDS011;56029;52.568;13.588;2022-12-18T02:11:36;33.08;;;12.02;;
68976;SDS011;56029;52.568;13.588;2022-12-18T02:14:38;35.72;;;11.30;;
68976;SDS011;56029;52.568;13.588;2022-12-18T02:17:11;35.72;;;11.65;;
68976;SDS011;56029;52.568;13.588;2022-12-18T02:22:59;33.60;;;11.00;;
68976;SDS011;56029;52.568;13.588;2022-12-18T02:28:20;35.22;;;12.27;;
68976;SDS011;56029;52.568;13.588;2022-12-18T02:30:51;36.88;;;12.02;;
68976;SDS011;56029;52.568;13.588;2022-12-18T02:33:21;34.60;;;11.40;;
68976;SDS011;56029;52.568;13.588;2022-12-18T02:35:52;41.28;;;11.93;;
68976;SDS011;56029;52.568;13.588;2022-12-18T02:38:19;38.05;;;12.50;;
68976;SDS011;56029;52.568;13.588;2022-12-18T02:40:46;40.33;;;11.95;;
68976;SDS011;56029;52.568;13.588;2022-12-18T02:43:15;35.50;;;11.68;;
68976;SDS011;56029;52.568;13.588;2022-12-18T02:45:48;34.90;;;11.75;;
68976;SDS011;56029;52.568;13.588;2022-12-18T02:48:17;36.67;;;11.30;;
68976;SDS011;56029;52.568;13.588;2022-12-18T02:54:00;32.17;;;11.13;;
68976;SDS011;56029;52.568;13.588;2022-12-18T02:56:46;33.83;;;11.57;;
68976;SDS011;56029;52.568;13.588;2022-12-18T02:59:21;34.60;;;11.45;;
68976;SDS011;56029;52.568;13.588;2022-12-18T03:01:57;33.85;;;10.73;;
68976;SDS011;56029;52.568;13.588;2022-12-18T03:04:39;34.10;;;10.98;;
68976;SDS011;56029;52.568;13.588;2022-12-18T03:07:35;33.92;;;10.80;;
68976;SDS011;56029;52.568;13.588;2022-12-18T03:10:04;34.72;;;10.65;;
68976;SDS011;56029;52.568;13.588;2022-12-18T03:12:34;33.28;;;10.90;;
68976;SDS011;56029;52.568;13.588;2022-12-18T03:17:40;35.83;;;11.98;;
68976;SDS011;56029;52.568;13.588;2022-12-18T03:20:14;36.33;;;11.95;;
68976;SDS011;56029;52.568;13.588;2022-12-18T03:22:42;30.88;;;10.90;;
68976;SDS011;56029;52.568;13.588;2022-12-18T03:25:13;37.63;;;10.70;;
68976;SDS011;56029;52.568;13.588;2022-12-18T03:27:41;33.58;;;11.73;;
68976;SDS011;56029;52.568;13.588;2022-12-18T03:30:12;35.95;;;11.60;;
68976;SDS011;56029;52.568;13.588;2022-12-18T03:32:52;37.67;;;12.20;;
68976;SDS011;56029;52.568;13.588;2022-12-18T03:35:28;34.05;;;11.50;;
68976;SDS011;56029;52.568;13.588;2022-12-18T03:37:57;38.20;;;12.25;;
68976;SDS011;56029;52.568;13.588;2022-12-18T03:40:24;38.33;;;11.80;;
68976;SDS011;56029;52.568;13.588;2022-12-18T03:42:59;35.30;;;12.27;;
68976;SDS011;56029;52.568;13.588;2022-12-18T03:45:37;35.78;;;11.02;;
68976;SDS011;56029;52.568;13.588;2022-12-18T03:48:22;36.80;;;11.43;;
68976;SDS011;56029;52.568;13.588;2022-12-18T03:50:59;38.47;;;10.77;;
68976;SDS011;56029;52.568;13.588;2022-12-18T03:53:39;37.08;;;10.90;;
68976;SDS011;56029;52.568;13.588;2022-12-18T03:56:12;32.37;;;10.87;;
68976;SDS011;56029;52.568;13.588;2022-12-18T03:58:40;34.40;;;11.40;;
68976;SDS011;56029;52.568;13.588;2022-12-18T04:01:08;33.05;;;10.50;;
68976;SDS011;56029;52.568;13.588;2022-12-18T04:03:37;37.55;;;11.38;;
68976;SDS011;56029;52.568;13.588;2022-12-18T04:06:03;30.23;;;10.83;;
68976;SDS011;56029;52.568;13.588;2022-12-18T04:08:30;30.70;;;10.20;;
68976;SDS011;56029;52.568;13.588;2022-12-18T04:10:57;32.70;;;10.82;;
68976;SDS011;56029;52.568;13.588;2022-12-18T04:13:30;32.85;;;10.70;;
68976;SDS011;56029;52.568;13.588;2022-12-18T04:15:59;33.43;;;10.67;;
68976;SDS011;56029;52.568;13.588;2022-12-18T04:18:24;33.35;;;10.07;;
68976;SDS011;56029;52.568;13.588;2022-12-18T04:20:50;34.60;;;10.70;;
68976;SDS011;56029;52.568;13.588;2022-12-18T04:23:15;31.02;;;9.80;;
68976;SDS011;56029;52.568;13.588;2022-12-18T04:25:41;33.60;;;10.70;;
68976;SDS011;56029;52.568;13.588;2022-12-18T04:28:07;32.00;;;10.80;;
68976;SDS011;56029;52.568;13.588;2022-12-18T04:30:32;36.93;;;11.10;;
68976;SDS011;56029;52.568;13.588;2022-12-18T04:33:00;34.58;;;11.90;;
68976;SDS011;56029;52.568;13.588;2022-12-18T04:35:25;32.53;;;11.27;;
68976;SDS011;56029;52.568;13.588;2022-12-18T04:37:51;31.10;;;11.30;;
68976;SDS011;56029;52.568;13.588;2022-12-18T04:40:16;35.20;;;11.40;;
68976;SDS011;56029;52.568;13.588;2022-12-18T04:42:42;32.60;;;11.57;;
68976;SDS011;56029;52.568;13.588;2022-12-18T04:45:08;36.03;;;11.57;;
68976;SDS011;56029;52.568;13.588;2022-12-18T04:47:34;39.42;;;11.82;;
68976;SDS011;56029;52.568;13.588;2022-12-18T04:49:59;30.20;;;10.77;;
68976;SDS011;56029;52.568;13.588;2022-12-18T04:52:25;36.78;;;11.02;;
68976;SDS011;56029;52.568;13.588;2022-12-18T04:54:51;34.40;;;11.57;;
68976;SDS011;56029;52.568;13.588;2022-12-18T04:57:16;34.90;;;10.93;;
68976;SDS011;56029;52.568;13.588;2022-12-18T04:59:43;36.80;;;11.80;;
68976;SDS011;56029;52.568;13.588;2022-12-18T05:02:09;36.00;;;11.15;;
68976;SDS011;56029;52.568;13.588;2022-12-18T05:04:35;27.87;;;10.30;;
68976;SDS011;56029;52.568;13.588;2022-12-18T05:07:00;33.33;;;11.80;;
68976;SDS011;56029;52.568;13.588;2022-12-18T05:09:26;30.52;;;11.63;;
68976;SDS011;56029;52.568;13.588;2022-12-18T05:11:51;33.97;;;11.27;;
68976;SDS011;56029;52.568;13.588;2022-12-18T05:14:17;33.47;;;10.97;;
68976;SDS011;56029;52.568;13.588;2022-12-18T05:16:45;35.67;;;11.18;;
68976;SDS011;56029;52.568;13.588;2022-12-18T05:19:11;33.90;;;10.23;;
68976;SDS011;56029;52.568;13.588;2022-12-18T05:21:36;33.90;;;10.63;;
68976;SDS011;56029;52.568;13.588;2022-12-18T05:24:02;34.10;;;11.47;;
68976;SDS011;56029;52.568;13.588;2022-12-18T05:26:28;32.05;;;10.75;;
68976;SDS011;56029;52.568;13.588;2022-12-18T05:28:56;34.17;;;11.03;;
68976;SDS011;56029;52.568;13.588;2022-12-18T05:31:22;34.15;;;11.55;;
68976;SDS011;56029;52.568;13.588;2022-12-18T05:33:47;32.60;;;10.77;;
68976;SDS011;56029;52.568;13.588;2022-12-18T05:36:16;31.45;;;10.30;;
68976;SDS011;56029;52.568;13.588;2022-12-18T05:38:41;32.67;;;10.37;;
68976;SDS011;56029;52.568;13.588;2022-12-18T05:41:07;30.23;;;10.80;;
68976;SDS011;56029;52.568;13.588;2022-12-18T05:43:34;31.40;;;9.98;;
68976;SDS011;56029;52.568;13.588;2022-12-18T05:46:08;32.17;;;9.95;;
68976;SDS011;56029;52.568;13.588;2022-12-18T05:48:37;30.77;;;9.57;;
68976;SDS011;56029;52.568;13.588;2022-12-18T05:51:04;31.60;;;9.77;;
68976;SDS011;56029;52.568;13.588;2022-12-18T05:53:31;32.08;;;10.05;;
68976;SDS011;56029;52.568;13.588;2022-12-18T05:56:00;32.33;;;9.60;;
68976;SDS011;56029;52.568;13.588;2022-12-18T05:58:26;29.67;;;10.23;;
68976;SDS011;56029;52.568;13.588;2022-12-18T06:00:52;28.75;;;9.50;;
68976;SDS011;56029;52.568;13.588;2022-12-18T06:03:18;33.83;;;10.43;;
68976;SDS011;56029;52.568;13.588;2022-12-18T06:05:44;30.83;;;9.32;;
68976;SDS011;56029;52.568;13.588;2022-12-18T06:08:11;29.97;;;10.43;;
68976;SDS011;56029;52.568;13.588;2022-12-18T06:10:38;29.15;;;10.60;;
68976;SDS011;56029;52.568;13.588;2022-12-18T06:13:04;30.02;;;10.18;;
68976;SDS011;56029;52.568;13.588;2022-12-18T06:15:31;28.55;;;10.13;;
68976;SDS011;56029;52.568;13.588;2022-12-18T06:17:57;31.67;;;10.18;;
68976;SDS011;56029;52.568;13.588;2022-12-18T06:20:22;31.35;;;10.65;;
68976;SDS011;56029;52.568;13.588;2022-12-18T06:22:48;33.37;;;11.27;;
68976;SDS011;56029;52.568;13.588;2022-12-18T06:25:14;32.90;;;10.30;;
68976;SDS011;56029;52.568;13.588;2022-12-18T06:27:40;30.75;;;10.88;;
68976;SDS011;56029;52.568;13.588;2022-12-18T06:30:06;35.40;;;10.17;;
68976;SDS011;56029;52.568;13.588;2022-12-18T06:32:32;32.83;;;10.48;;
68976;SDS011;56029;52.568;13.588;2022-12-18T06:34:58;33.33;;;10.10;;
68976;SDS011;56029;52.568;13.588;2022-12-18T06:37:23;32.40;;;10.77;;
68976;SDS011;56029;52.568;13.588;2022-12-18T06:39:52;33.25;;;10.55;;
68976;SDS011;56029;52.568;13.588;2022-12-18T06:42:18;36.47;;;10.82;;
68976;SDS011;56029;52.568;13.588;2022-12-18T06:44:47;33.28;;;10.77;;
68976;SDS011;56029;52.568;13.588;2022-12-18T06:47:12;34.58;;;10.50;;
68976;SDS011;56029;52.568;13.588;2022-12-18T06:49:38;30.50;;;9.18;;
68976;SDS011;56029;52.568;13.588;2022-12-18T06:52:03;29.97;;;10.37;;
68976;SDS011;56029;52.568;13.588;2022-12-18T06:54:29;33.97;;;10.82;;
68976;SDS011;56029;52.568;13.588;2022-12-18T06:56:55;30.47;;;10.97;;
68976;SDS011;56029;52.568;13.588;2022-12-18T06:59:21;29.52;;;10.23;;
68976;SDS011;56029;52.568;13.588;2022-12-18T07:01:47;27.55;;;9.73;;
68976;SDS011;56029;52.568;13.588;2022-12-18T07:04:12;31.20;;;10.10;;
68976;SDS011;56029;52.568;13.588;2022-12-18T07:06:38;33.63;;;10.95;;
68976;SDS011;56029;52.568;13.588;2022-12-18T07:09:04;32.60;;;10.93;;
68976;SDS011;56029;52.568;13.588;2022-12-18T07:11:29;36.30;;;10.77;;
68976;SDS011;56029;52.568;13.588;2022-12-18T07:13:58;33.40;;;10.55;;
68976;SDS011;56029;52.568;13.588;2022-12-18T07:16:26;29.90;;;10.35;;
68976;SDS011;56029;52.568;13.588;2022-12-18T07:18:54;33.45;;;10.30;;
68976;SDS011;56029;52.568;13.588;2022-12-18T07:21:20;28.10;;;9.75;;
68976;SDS011;56029;52.568;13.588;2022-12-18T07:23:47;30.65;;;9.85;;
68976;SDS011;56029;52.568;13.588;2022-12-18T07:26:13;31.13;;;10.30;;
68976;SDS011;56029;52.568;13.588;2022-12-18T07:28:41;30.80;;;10.45;;
68976;SDS011;56029;52.568;13.588;2022-12-18T07:31:11;30.70;;;10.90;;
68976;SDS011;56029;52.568;13.588;2022-12-18T07:33:39;32.53;;;10.20;;
68976;SDS011;56029;52.568;13.588;2022-12-18T07:36:05;30.60;;;9.60;;
68976;SDS011;56029;52.568;13.588;2022-12-18T07:38:33;35.45;;;10.65;;
68976;SDS011;56029;52.568;13.588;2022-12-18T07:41:00;34.78;;;10.50;;
68976;SDS011;56029;52.568;13.588;2022-12-18T07:43:27;32.33;;;9.80;;
68976;SDS011;56029;52.568;13.588;2022-12-18T07:45:52;32.25;;;9.45;;
68976;SDS011;56029;52.568;13.588;2022-12-18T07:48:18;32.60;;;11.20;;
68976;SDS011;56029;52.568;13.588;2022-12-18T07:50:43;31.07;;;9.93;;
68976;SDS011;56029;52.568;13.588;2022-12-18T07:53:09;32.80;;;10.38;;
68976;SDS011;56029;52.568;13.588;2022-12-18T07:55:35;33.70;;;10.90;;
68976;SDS011;56029;52.568;13.588;2022-12-18T07:58:02;30.60;;;10.65;;
68976;SDS011;56029;52.568;13.588;2022-12-18T08:00:28;32.90;;;10.52;;
68976;SDS011;56029;52.568;13.588;2022-12-18T08:02:54;30.90;;;10.40;;
68976;SDS011;56029;52.568;13.588;2022-12-18T08:05:20;32.25;;;10.75;;
68976;SDS011;56029;52.568;13.588;2022-12-18T08:07:46;32.45;;;10.32;;
68976;SDS011;56029;52.568;13.588;2022-12-18T08:10:12;33.23;;;10.50;;
68976;SDS011;56029;52.568;13.588;2022-12-18T08:12:40;32.63;;;10.05;;
68976;SDS011;56029;52.568;13.588;2022-12-18T08:15:06;31.00;;;9.97;;
68976;SDS011;56029;52.568;13.588;2022-12-18T08:17:32;26.65;;;10.45;;
68976;SDS011;56029;52.568;13.588;2022-12-18T08:19:58;32.88;;;11.10;;
68976;SDS011;56029;52.568;13.588;2022-12-18T08:22:23;30.87;;;10.70;;
68976;SDS011;56029;52.568;13.588;2022-12-18T08:24:49;31.70;;;10.00;;
68976;SDS011;56029;52.568;13.588;2022-12-18T08:27:14;32.53;;;10.98;;
68976;SDS011;56029;52.568;13.588;2022-12-18T08:29:40;34.27;;;10.33;;
68976;SDS011;56029;52.568;13.588;2022-12-18T08:32:05;35.37;;;11.30;;
68976;SDS011;56029;52.568;13.588;2022-12-18T08:34:31;36.33;;;12.13;;
68976;SDS011;56029;52.568;13.588;2022-12-18T08:36:57;30.57;;;10.33;;
68976;SDS011;56029;52.568;13.588;2022-12-18T08:39:22;33.50;;;10.57;;
68976;SDS011;56029;52.568;13.588;2022-12-18T08:41:48;37.85;;;11.27;;
68976;SDS011;56029;52.568;13.588;2022-12-18T08:44:33;36.40;;;11.57;;
68976;SDS011;56029;52.568;13.588;2022-12-18T08:47:08;35.42;;;9.80;;
68976;SDS011;56029;52.568;13.588;2022-12-18T08:49:33;35.53;;;11.53;;
68976;SDS011;56029;52.568;13.588;2022-12-18T08:52:00;35.08;;;11.98;;
68976;SDS011;56029;52.568;13.588;2022-12-18T08:54:28;33.70;;;11.45;;
68976;SDS011;56029;52.568;13.588;2022-12-18T08:56:54;32.00;;;11.00;;
68976;SDS011;56029;52.568;13.588;2022-12-18T08:59:19;34.47;;;10.90;;
68976;SDS011;56029;52.568;13.588;2022-12-18T09:01:45;32.47;;;10.52;;
68976;SDS011;56029;52.568;13.588;2022-12-18T09:04:11;36.53;;;9.88;;
68976;SDS011;56029;52.568;13.588;2022-12-18T09:06:38;35.25;;;9.95;;
68976;SDS011;56029;52.568;13.588;2022-12-18T09:09:04;40.73;;;12.03;;
68976;SDS011;56029;52.568;13.588;2022-12-18T09:11:30;40.58;;;12.27;;
68976;SDS011;56029;52.568;13.588;2022-12-18T09:13:57;41.80;;;11.43;;
68976;SDS011;56029;52.568;13.588;2022-12-18T09:16:25;38.38;;;12.50;;
68976;SDS011;56029;52.568;13.588;2022-12-18T09:18:51;40.85;;;12.60;;
68976;SDS011;56029;52.568;13.588;2022-12-18T09:21:20;40.50;;;13.00;;
68976;SDS011;56029;52.568;13.588;2022-12-18T09:23:49;42.15;;;13.05;;
68976;SDS011;56029;52.568;13.588;2022-12-18T09:26:15;38.17;;;12.52;;
68976;SDS011;56029;52.568;13.588;2022-12-18T09:28:42;39.35;;;12.55;;
68976;SDS011;56029;52.568;13.588;2022-12-18T09:31:08;35.03;;;11.45;;
68976;SDS011;56029;52.568;13.588;2022-12-18T09:33:35;44.30;;;12.80;;
68976;SDS011;56029;52.568;13.588;2022-12-18T09:36:05;38.38;;;11.82;;
68976;SDS011;56029;52.568;13.588;2022-12-18T09:38:32;39.10;;;12.30;;
68976;SDS011;56029;52.568;13.588;2022-12-18T09:40:59;39.65;;;12.07;;
68976;SDS011;56029;52.568;13.588;2022-12-18T09:43:33;40.17;;;12.63;;
68976;SDS011;56029;52.568;13.588;2022-12-18T09:46:07;38.10;;;12.27;;
68976;SDS011;56029;52.568;13.588;2022-12-18T09:48:44;39.70;;;12.63;;
68976;SDS011;56029;52.568;13.588;2022-12-18T09:51:14;40.70;;;13.15;;
68976;SDS011;56029;52.568;13.588;2022-12-18T09:53:44;38.90;;;12.20;;
68976;SDS011;56029;52.568;13.588;2022-12-18T09:56:19;39.95;;;12.73;;
68976;SDS011;56029;52.568;13.588;2022-12-18T09:58:54;42.88;;;13.13;;
68976;SDS011;56029;52.568;13.588;2022-12-18T10:01:24;41.33;;;13.30;;
68976;SDS011;56029;52.568;13.588;2022-12-18T10:03:51;39.38;;;11.95;;
68976;SDS011;56029;52.568;13.588;2022-12-18T10:06:39;37.63;;;12.15;;
68976;SDS011;56029;52.568;13.588;2022-12-18T10:09:27;34.58;;;11.52;;
68976;SDS011;56029;52.568;13.588;2022-12-18T10:12:25;34.58;;;11.27;;
68976;SDS011;56029;52.568;13.588;2022-12-18T10:15:40;40.90;;;12.05;;
68976;SDS011;56029;52.568;13.588;2022-12-18T10:18:35;33.30;;;11.38;;
68976;SDS011;56029;52.568;13.588;2022-12-18T10:21:28;31.35;;;11.90;;
68976;SDS011;56029;52.568;13.588;2022-12-18T10:24:23;38.42;;;11.60;;
68976;SDS011;56029;52.568;13.588;2022-12-18T10:27:14;35.35;;;11.18;;
68976;SDS011;56029;52.568;13.588;2022-12-18T10:29:48;36.25;;;11.00;;
68976;SDS011;56029;52.568;13.588;2022-12-18T10:32:18;34.30;;;12.40;;
68976;SDS011;56029;52.568;13.588;2022-12-18T10:34:48;36.25;;;11.30;;
68976;SDS011;56029;52.568;13.588;2022-12-18T10:37:19;34.03;;;11.52;;
68976;SDS011;56029;52.568;13.588;2022-12-18T10:40:06;35.97;;;11.10;;
68976;SDS011;56029;52.568;13.588;2022-12-18T10:42:35;33.65;;;12.55;;
68976;SDS011;56029;52.568;13.588;2022-12-18T10:45:03;35.83;;;11.60;;
68976;SDS011;56029;52.568;13.588;2022-12-18T10:47:34;40.58;;;13.40;;
68976;SDS011;56029;52.568;13.588;2022-12-18T10:50:00;37.85;;;12.30;;
68976;SDS011;56029;52.568;13.588;2022-12-18T10:52:26;41.53;;;13.20;;
68976;SDS011;56029;52.568;13.588;2022-12-18T10:54:54;31.17;;;10.60;;
68976;SDS011;56029;52.568;13.588;2022-12-18T10:59:53;30.20;;;10.43;;
68976;SDS011;56029;52.568;13.588;2022-12-18T11:02:28;29.98;;;10.35;;
68976;SDS011;56029;52.568;13.588;2022-12-18T11:04:59;33.27;;;11.17;;
68976;SDS011;56029;52.568;13.588;2022-12-18T11:07:25;31.05;;;10.38;;
68976;SDS011;56029;52.568;13.588;2022-12-18T11:10:03;30.50;;;11.40;;
68976;SDS011;56029;52.568;13.588;2022-12-18T11:12:29;25.65;;;9.10;;
68976;SDS011;56029;52.568;13.588;2022-12-18T11:14:58;36.50;;;11.55;;
68976;SDS011;56029;52.568;13.588;2022-12-18T11:19:58;31.27;;;10.45;;
68976;SDS011;56029;52.568;13.588;2022-12-18T11:22:29;30.20;;;10.83;;
68976;SDS011;56029;52.568;13.588;2022-12-18T11:24:59;28.17;;;11.07;;
68976;SDS011;56029;52.568;13.588;2022-12-18T11:27:31;29.85;;;10.93;;
68976;SDS011;56029;52.568;13.588;2022-12-18T11:30:13;27.23;;;9.65;;
68976;SDS011;56029;52.568;13.588;2022-12-18T11:32:48;28.70;;;10.43;;
68976;SDS011;56029;52.568;13.588;2022-12-18T11:38:14;25.23;;;9.52;;
68976;SDS011;56029;52.568;13.588;2022-12-18T11:40:47;29.33;;;10.70;;
68976;SDS011;56029;52.568;13.588;2022-12-18T11:46:11;29.95;;;10.93;;
68976;SDS011;56029;52.568;13.588;2022-12-18T11:48:49;26.10;;;10.23;;
68976;SDS011;56029;52.568;13.588;2022-12-18T11:51:32;28.90;;;10.70;;
68976;SDS011;56029;52.568;13.588;2022-12-18T11:54:09;28.20;;;10.57;;
68976;SDS011;56029;52.568;13.588;2022-12-18T11:56:49;29.23;;;9.85;;
68976;SDS011;56029;52.568;13.588;2022-12-18T11:59:27;35.47;;;18.45;;
68976;SDS011;56029;52.568;13.588;2022-12-18T12:05:18;27.92;;;10.43;;
68976;SDS011;56029;52.568;13.588;2022-12-18T12:08:13;29.38;;;11.88;;
68976;SDS011;56029;52.568;13.588;2022-12-18T12:13:46;29.90;;;11.30;;
68976;SDS011;56029;52.568;13.588;2022-12-18T12:16:43;29.63;;;10.73;;
68976;SDS011;56029;52.568;13.588;2022-12-18T12:19:17;29.25;;;9.80;;
68976;SDS011;56029;52.568;13.588;2022-12-18T12:25:09;29.70;;;10.77;;
68976;SDS011;56029;52.568;13.588;2022-12-18T12:27:47;24.38;;;10.48;;
68976;SDS011;56029;52.568;13.588;2022-12-18T12:35:52;26.13;;;10.43;;
68976;SDS011;56029;52.568;13.588;2022-12-18T12:38:31;25.45;;;10.18;;
68976;SDS011;56029;52.568;13.588;2022-12-18T12:41:04;27.92;;;10.07;;
68976;SDS011;56029;52.568;13.588;2022-12-18T12:43:53;25.53;;;9.70;;
68976;SDS011;56029;52.568;13.588;2022-12-18T12:46:22;26.92;;;10.52;;
68976;SDS011;56029;52.568;13.588;2022-12-18T12:48:51;28.85;;;11.55;;
68976;SDS011;56029;52.568;13.588;2022-12-18T12:51:32;28.15;;;11.25;;
68976;SDS011;56029;52.568;13.588;2022-12-18T12:53:59;28.30;;;10.88;;
68976;SDS011;56029;52.568;13.588;2022-12-18T12:59:29;25.83;;;10.80;;
68976;SDS011;56029;52.568;13.588;2022-12-18T13:02:06;26.60;;;9.85;;
68976;SDS011;56029;52.568;13.588;2022-12-18T13:07:39;26.30;;;10.68;;
68976;SDS011;56029;52.568;13.588;2022-12-18T13:20:44;28.35;;;10.70;;
68976;SDS011;56029;52.568;13.588;2022-12-18T13:25:50;26.40;;;9.43;;
68976;SDS011;56029;52.568;13.588;2022-12-18T13:28:18;25.92;;;9.50;;
68976;SDS011;56029;52.568;13.588;2022-12-18T13:30:50;29.50;;;10.52;;
68976;SDS011;56029;52.568;13.588;2022-12-18T13:45:46;28.60;;;10.40;;
68976;SDS011;56029;52.568;13.588;2022-12-18T13:48:18;28.20;;;11.18;;
68976;SDS011;56029;52.568;13.588;2022-12-18T13:50:53;30.70;;;11.48;;
68976;SDS011;56029;52.568;13.588;2022-12-18T13:53:24;29.60;;;11.55;;
68976;SDS011;56029;52.568;13.588;2022-12-18T13:55:52;31.50;;;11.20;;
68976;SDS011;56029;52.568;13.588;2022-12-18T13:58:18;27.52;;;10.52;;
68976;SDS011;56029;52.568;13.588;2022-12-18T14:00:44;27.93;;;10.03;;
68976;SDS011;56029;52.568;13.588;2022-12-18T14:03:17;28.73;;;11.50;;
68976;SDS011;56029;52.568;13.588;2022-12-18T14:05:45;29.83;;;12.07;;
68976;SDS011;56029;52.568;13.588;2022-12-18T14:08:15;27.40;;;10.67;;
68976;SDS011;56029;52.568;13.588;2022-12-18T14:10:42;26.98;;;10.43;;
68976;SDS011;56029;52.568;13.588;2022-12-18T14:13:13;29.73;;;11.80;;
68976;SDS011;56029;52.568;13.588;2022-12-18T14:15:42;31.17;;;10.50;;
68976;SDS011;56029;52.568;13.588;2022-12-18T14:21:06;29.20;;;10.97;;
68976;SDS011;56029;52.568;13.588;2022-12-18T14:23:43;28.60;;;11.88;;
68976;SDS011;56029;52.568;13.588;2022-12-18T14:26:22;27.00;;;11.63;;
68976;SDS011;56029;52.568;13.588;2022-12-18T14:28:50;29.17;;;11.43;;
68976;SDS011;56029;52.568;13.588;2022-12-18T14:31:19;32.55;;;11.57;;
68976;SDS011;56029;52.568;13.588;2022-12-18T14:33:47;32.40;;;12.43;;
68976;SDS011;56029;52.568;13.588;2022-12-18T14:36:14;32.75;;;12.63;;
68976;SDS011;56029;52.568;13.588;2022-12-18T14:38:42;30.55;;;12.25;;
68976;SDS011;56029;52.568;13.588;2022-12-18T14:41:13;30.33;;;11.87;;
68976;SDS011;56029;52.568;13.588;2022-12-18T14:43:40;33.88;;;12.55;;
68976;SDS011;56029;52.568;13.588;2022-12-18T14:51:30;30.65;;;12.25;;
68976;SDS011;56029;52.568;13.588;2022-12-18T14:53:59;29.73;;;11.23;;
68976;SDS011;56029;52.568;13.588;2022-12-18T14:56:33;28.80;;;11.30;;
68976;SDS011;56029;52.568;13.588;2022-12-18T14:59:02;30.00;;;11.80;;
68976;SDS011;56029;52.568;13.588;2022-12-18T15:01:34;29.20;;;12.18;;
68976;SDS011;56029;52.568;13.588;2022-12-18T15:04:03;31.10;;;12.98;;
68976;SDS011;56029;52.568;13.588;2022-12-18T15:06:34;31.23;;;11.60;;
68976;SDS011;56029;52.568;13.588;2022-12-18T15:09:04;25.45;;;10.38;;
68976;SDS011;56029;52.568;13.588;2022-12-18T15:11:45;27.35;;;11.45;;
68976;SDS011;56029;52.568;13.588;2022-12-18T15:16:55;30.63;;;11.43;;
68976;SDS011;56029;52.568;13.588;2022-12-18T15:19:22;32.00;;;12.63;;
68976;SDS011;56029;52.568;13.588;2022-12-18T15:21:57;27.73;;;12.30;;
68976;SDS011;56029;52.568;13.588;2022-12-18T15:24:24;28.10;;;12.20;;
68976;SDS011;56029;52.568;13.588;2022-12-18T15:26:54;30.67;;;12.68;;
68976;SDS011;56029;52.568;13.588;2022-12-18T15:29:23;30.50;;;12.57;;
68976;SDS011;56029;52.568;13.588;2022-12-18T15:31:58;24.60;;;10.35;;
68976;SDS011;56029;52.568;13.588;2022-12-18T15:34:29;28.55;;;11.60;;
68976;SDS011;56029;52.568;13.588;2022-12-18T15:36:54;27.55;;;10.05;;
68976;SDS011;56029;52.568;13.588;2022-12-18T15:39:20;31.90;;;12.03;;
68976;SDS011;56029;52.568;13.588;2022-12-18T15:41:46;31.37;;;12.50;;
68976;SDS011;56029;52.568;13.588;2022-12-18T15:44:30;30.52;;;12.07;;
68976;SDS011;56029;52.568;13.588;2022-12-18T15:46:56;31.37;;;12.60;;
68976;SDS011;56029;52.568;13.588;2022-12-18T15:49:22;28.48;;;11.65;;
68976;SDS011;56029;52.568;13.588;2022-12-18T15:51:57;29.75;;;12.07;;
68976;SDS011;56029;52.568;13.588;2022-12-18T15:54:25;32.88;;;13.02;;